Time;durP1;ratioP1;P1;durP2;ratioP2;P2;SDS_P1;SDS_P2;PMS_P1;PMS_P2;Temp;Humidity;BMP_temperature;BMP_pressure;BME280_temperature;BME280_humidity;BME280_pressure;Samples;Min_cycle;Max_cycle;Signal;HPM_P1;HPM_P2
2023/09/11 00:00:27;;;;;;;21.70;15.30;;;22.40;99.90;;;;;;5054018;28;20037;-90
2023/09/11 00:02:53;;;;;;;27.38;15.77;;;22.30;99.90;;;;;;5035926;28;20080;-90
2023/09/11 00:05:19;;;;;;;20.00;14.82;;;22.30;99.90;;;;;;5036458;28;20076;-90
2023/09/11 00:07:44;;;;;;;26.13;14.63;;;22.30;99.90;;;;;;5036233;28;20049;-90
2023/09/11 00:10:10;;;;;;;28.33;16.27;;;22.30;99.90;;;;;;5035689;28;20099;-90
2023/09/11 00:12:36;;;;;;;23.65;14.95;;;22.20;99.90;;;;;;5036390;28;20120;-90
2023/09/11 00:15:01;;;;;;;24.83;15.07;;;22.20;99.90;;;;;;5035415;28;20048;-90
2023/09/11 00:17:27;;;;;;;27.13;15.93;;;22.20;99.90;;;;;;5019210;28;20393;-90
2023/09/11 00:19:53;;;;;;;24.73;15.65;;;22.20;99.90;;;;;;5036292;28;20079;-90
2023/09/11 00:22:19;;;;;;;23.63;16.00;;;22.10;99.90;;;;;;5019720;28;20076;-90
2023/09/11 00:24:45;;;;;;;23.45;15.38;;;22.10;99.90;;;;;;5035880;28;20071;-90
2023/09/11 00:27:11;;;;;;;24.52;15.63;;;22.10;99.90;;;;;;5035917;28;20048;-90
2023/09/11 00:29:36;;;;;;;22.85;14.95;;;22.10;99.90;;;;;;5019536;28;20423;-90
2023/09/11 00:32:02;;;;;;;24.15;15.43;;;22.10;99.90;;;;;;5019286;28;20033;-90
2023/09/11 00:34:29;;;;;;;23.38;15.02;;;22.10;99.90;;;;;;5019579;28;20041;-90
2023/09/11 00:36:55;;;;;;;22.55;15.98;;;22.10;99.90;;;;;;5035905;28;20040;-89
2023/09/11 00:39:21;;;;;;;23.13;15.70;;;22.00;99.90;;;;;;5035714;28;20411;-90
2023/09/11 00:41:47;;;;;;;22.65;15.43;;;22.00;99.90;;;;;;5035965;28;20041;-90
2023/09/11 00:44:13;;;;;;;24.52;15.63;;;22.00;99.90;;;;;;5035934;28;20041;-89
2023/09/11 00:46:40;;;;;;;23.92;15.77;;;21.90;99.90;;;;;;5035502;28;20043;-89
2023/09/11 00:49:06;;;;;;;24.42;16.13;;;21.90;99.90;;;;;;5035153;28;20040;-89
2023/09/11 00:51:33;;;;;;;23.02;15.90;;;21.90;99.90;;;;;;5035623;28;20037;-89
2023/09/11 00:53:59;;;;;;;25.13;17.45;;;21.80;99.90;;;;;;5035300;28;20055;-89
2023/09/11 00:56:25;;;;;;;25.20;16.73;;;21.80;99.90;;;;;;5035627;28;20041;-89
2023/09/11 00:58:51;;;;;;;28.77;17.33;;;21.80;99.90;;;;;;5035107;28;20071;-88
2023/09/11 01:01:19;;;;;;;25.35;16.35;;;21.80;99.90;;;;;;5035262;28;20055;-90
2023/09/11 01:03:46;;;;;;;22.63;16.10;;;21.70;99.90;;;;;;5018872;28;20084;-90
2023/09/11 01:06:11;;;;;;;24.25;15.45;;;21.70;99.90;;;;;;5035484;28;20036;-90
2023/09/11 01:08:37;;;;;;;25.02;16.73;;;21.70;99.90;;;;;;5034987;28;20047;-90
2023/09/11 01:11:02;;;;;;;25.38;15.75;;;21.60;99.90;;;;;;5034960;28;20188;-89
2023/09/11 01:13:28;;;;;;;24.83;16.52;;;21.60;99.90;;;;;;5018628;28;20029;-90
2023/09/11 01:16:14;;;;;;;25.23;15.75;;;21.60;99.90;;;;;;5034695;28;20588;-90
2023/09/11 01:18:51;;;;;;;26.92;17.30;;;21.60;99.90;;;;;;5035532;28;20116;-90
2023/09/11 01:21:44;;;;;;;22.75;15.90;;;21.60;99.90;;;;;;5018995;28;20059;-90
2023/09/11 01:24:32;;;;;;;23.50;16.65;;;21.60;99.90;;;;;;5018627;28;20504;-89
2023/09/11 01:27:10;;;;;;;25.20;17.17;;;21.60;99.90;;;;;;5034789;28;20037;-89
2023/09/11 01:29:39;;;;;;;24.90;16.42;;;21.50;99.90;;;;;;5034808;28;20095;-90
2023/09/11 01:32:06;;;;;;;22.40;16.85;;;21.50;99.90;;;;;;5034850;28;20041;-90
2023/09/11 01:34:31;;;;;;;20.98;15.80;;;21.50;99.90;;;;;;5034465;28;20041;-90
2023/09/11 01:36:57;;;;;;;24.67;16.05;;;21.40;99.90;;;;;;5034543;28;20033;-90
2023/09/11 01:39:23;;;;;;;24.88;17.98;;;21.40;99.90;;;;;;5034410;28;20098;-90
2023/09/11 01:41:53;;;;;;;26.98;16.60;;;21.40;99.90;;;;;;5018514;28;20041;-90
2023/09/11 01:44:26;;;;;;;30.40;18.45;;;21.40;99.90;;;;;;5034726;28;20041;-89
2023/09/11 01:46:53;;;;;;;29.13;17.17;;;21.40;99.90;;;;;;5018357;28;20041;-89
2023/09/11 01:49:20;;;;;;;28.45;17.25;;;21.40;99.90;;;;;;5034449;28;20119;-89
2023/09/11 01:51:49;;;;;;;29.08;17.58;;;21.30;99.90;;;;;;5034708;28;20179;-89
2023/09/11 01:54:16;;;;;;;27.25;17.33;;;21.30;99.90;;;;;;5034235;28;20052;-89
2023/09/11 01:56:42;;;;;;;26.52;17.42;;;21.30;99.90;;;;;;5034269;28;20041;-89
2023/09/11 01:59:07;;;;;;;28.48;18.65;;;21.30;99.90;;;;;;5017342;28;20037;-89
2023/09/11 02:01:33;;;;;;;24.50;16.85;;;21.20;99.90;;;;;;5034249;28;20047;-89
2023/09/11 02:03:58;;;;;;;25.80;17.23;;;21.20;99.90;;;;;;5034101;28;20041;-89
2023/09/11 02:06:24;;;;;;;27.27;17.35;;;21.20;99.90;;;;;;5018202;28;20037;-89
2023/09/11 02:08:49;;;;;;;25.92;17.00;;;21.20;99.90;;;;;;5033992;28;20614;-89
2023/09/11 02:11:15;;;;;;;27.27;16.58;;;21.10;99.90;;;;;;5034113;28;20040;-89
2023/09/11 02:13:41;;;;;;;25.23;17.67;;;21.20;99.90;;;;;;5034267;28;20041;-90
2023/09/11 02:16:06;;;;;;;26.95;16.70;;;21.10;99.90;;;;;;5016884;28;20037;-89
2023/09/11 02:18:32;;;;;;;29.27;17.27;;;21.10;99.90;;;;;;5033889;28;20036;-90
2023/09/11 02:20:57;;;;;;;26.02;17.85;;;21.10;99.90;;;;;;5034050;28;20123;-89
2023/09/11 02:23:23;;;;;;;24.67;16.38;;;21.10;99.90;;;;;;5034399;28;20407;-89
2023/09/11 02:25:49;;;;;;;26.80;17.52;;;21.10;99.90;;;;;;5016704;28;20610;-89
2023/09/11 02:28:15;;;;;;;26.40;17.23;;;21.10;99.90;;;;;;5033504;28;20037;-89
2023/09/11 02:30:40;;;;;;;24.73;17.20;;;21.00;99.90;;;;;;5033633;28;20044;-89
2023/09/11 02:33:06;;;;;;;24.52;17.23;;;21.00;99.90;;;;;;5033945;28;20029;-89
2023/09/11 02:35:31;;;;;;;26.58;17.13;;;21.00;99.90;;;;;;5033677;28;20033;-89
2023/09/11 02:37:58;;;;;;;31.02;17.20;;;21.00;99.90;;;;;;5033064;28;20171;-89
2023/09/11 02:40:23;;;;;;;24.65;16.25;;;21.00;99.90;;;;;;5033835;28;20043;-89
2023/09/11 02:42:49;;;;;;;28.83;17.83;;;21.00;99.90;;;;;;5017275;28;20469;-89
2023/09/11 02:45:15;;;;;;;24.60;16.48;;;21.00;99.90;;;;;;5017065;28;20037;-89
2023/09/11 02:47:40;;;;;;;27.10;16.50;;;21.00;99.90;;;;;;5033339;28;20045;-89
2023/09/11 02:50:06;;;;;;;26.67;17.13;;;21.00;99.90;;;;;;5033637;28;20040;-88
2023/09/11 02:52:32;;;;;;;30.00;17.70;;;20.90;99.90;;;;;;5033693;28;20033;-88
2023/09/11 02:54:57;;;;;;;26.95;18.90;;;20.90;99.90;;;;;;5033736;28;20091;-87
2023/09/11 02:57:23;;;;;;;23.45;17.98;;;20.90;99.90;;;;;;5016949;28;20048;-87
2023/09/11 02:59:53;;;;;;;25.23;17.33;;;20.90;99.90;;;;;;5033636;28;20069;-88
2023/09/11 03:02:19;;;;;;;25.92;17.20;;;20.90;99.90;;;;;;5033486;28;20080;-87
2023/09/11 03:04:45;;;;;;;24.02;17.92;;;20.90;99.90;;;;;;5017394;28;20083;-88
2023/09/11 03:07:10;;;;;;;24.92;17.33;;;20.90;99.90;;;;;;5033226;28;20056;-87
2023/09/11 03:09:36;;;;;;;25.00;17.50;;;20.80;99.90;;;;;;5017152;28;20392;-87
2023/09/11 03:12:02;;;;;;;24.98;17.88;;;20.80;99.90;;;;;;5016843;28;20143;-87
2023/09/11 03:14:28;;;;;;;24.15;16.98;;;20.80;99.90;;;;;;5033182;28;20132;-87
2023/09/11 03:16:53;;;;;;;27.20;18.77;;;20.80;99.90;;;;;;5033406;28;20403;-87
2023/09/11 03:19:19;;;;;;;23.45;18.00;;;20.80;99.90;;;;;;5016966;28;20500;-88
2023/09/11 03:21:44;;;;;;;29.30;18.65;;;20.80;99.90;;;;;;5034095;28;20057;-88
2023/09/11 03:24:10;;;;;;;25.67;17.35;;;20.80;99.90;;;;;;5033569;28;20041;-88
2023/09/11 03:26:36;;;;;;;28.48;18.60;;;20.80;99.90;;;;;;5017126;28;20032;-88
2023/09/11 03:29:02;;;;;;;29.00;18.73;;;20.70;99.90;;;;;;5016252;28;20074;-88
2023/09/11 03:31:28;;;;;;;25.67;18.90;;;20.70;99.90;;;;;;5016865;28;20402;-88
2023/09/11 03:33:54;;;;;;;28.80;18.60;;;20.70;99.90;;;;;;5016761;28;20081;-88
2023/09/11 03:36:19;;;;;;;24.63;18.08;;;20.70;99.90;;;;;;5033037;28;20466;-88
2023/09/11 03:38:45;;;;;;;25.42;19.23;;;20.70;99.90;;;;;;5020101;28;20033;-88
2023/09/11 03:41:11;;;;;;;27.50;18.50;;;20.70;99.90;;;;;;5020850;28;20040;-88
2023/09/11 03:43:36;;;;;;;27.50;19.30;;;20.70;99.90;;;;;;5036985;28;20072;-88
2023/09/11 03:46:02;;;;;;;27.27;18.25;;;20.70;99.90;;;;;;5020382;28;20123;-88
2023/09/11 03:48:28;;;;;;;27.77;18.75;;;20.70;99.90;;;;;;5020320;28;20071;-88
2023/09/11 03:50:55;;;;;;;33.03;19.33;;;20.60;99.90;;;;;;5036701;28;20052;-88
2023/09/11 03:53:20;;;;;;;25.83;18.98;;;20.60;99.90;;;;;;5036658;28;20086;-88
2023/09/11 03:55:46;;;;;;;30.48;18.45;;;20.60;99.90;;;;;;5036554;28;20443;-88
2023/09/11 03:58:12;;;;;;;27.38;18.63;;;20.60;99.90;;;;;;5035871;28;20072;-88
2023/09/11 04:00:37;;;;;;;28.15;18.90;;;20.60;99.90;;;;;;5036849;28;20028;-88
2023/09/11 04:03:03;;;;;;;25.45;18.70;;;20.60;99.90;;;;;;5020064;28;20947;-89
2023/09/11 04:05:29;;;;;;;29.30;19.10;;;20.60;99.90;;;;;;5036484;28;20416;-89
2023/09/11 04:07:55;;;;;;;27.42;19.88;;;20.60;99.90;;;;;;5036271;28;20033;-89
2023/09/11 04:10:21;;;;;;;25.33;20.15;;;20.60;99.90;;;;;;5036515;28;20048;-88
2023/09/11 04:12:47;;;;;;;27.80;18.38;;;20.50;99.90;;;;;;5019716;28;20033;-88
2023/09/11 04:15:12;;;;;;;27.25;18.02;;;20.50;99.90;;;;;;5036059;28;20500;-89
2023/09/11 04:17:38;;;;;;;27.65;20.02;;;20.50;99.90;;;;;;5019252;28;20060;-89
2023/09/11 04:20:05;;;;;;;27.48;19.10;;;20.50;99.90;;;;;;5036145;28;20032;-89
2023/09/11 04:22:30;;;;;;;26.25;19.23;;;20.50;99.90;;;;;;5019708;28;20044;-89
2023/09/11 04:24:56;;;;;;;27.98;18.90;;;20.50;99.90;;;;;;5019854;28;20049;-89
2023/09/11 04:27:22;;;;;;;28.73;19.33;;;20.40;99.90;;;;;;5035842;28;20033;-89
2023/09/11 04:29:47;;;;;;;25.38;19.30;;;20.50;99.90;;;;;;5019795;28;20491;-88
2023/09/11 04:32:13;;;;;;;29.08;20.27;;;20.40;99.90;;;;;;5035962;28;20033;-89
2023/09/11 04:34:38;;;;;;;27.27;20.70;;;20.40;99.90;;;;;;5036056;28;20052;-88
2023/09/11 04:37:04;;;;;;;24.00;19.77;;;20.40;99.90;;;;;;5035609;28;20588;-88
2023/09/11 04:39:30;;;;;;;27.90;20.25;;;20.40;99.90;;;;;;5019402;28;20067;-88
2023/09/11 04:41:55;;;;;;;27.73;20.10;;;20.40;99.90;;;;;;5035592;28;20071;-88
2023/09/11 04:44:21;;;;;;;23.98;19.52;;;20.40;99.90;;;;;;5036091;28;20126;-89
2023/09/11 04:46:46;;;;;;;28.98;20.23;;;20.40;99.90;;;;;;5018846;28;20037;-88
2023/09/11 04:49:12;;;;;;;25.85;19.08;;;20.30;99.90;;;;;;5033391;28;20439;-88
2023/09/11 04:51:38;;;;;;;26.92;19.58;;;20.30;99.90;;;;;;5035656;28;20045;-88
2023/09/11 04:54:03;;;;;;;27.55;19.27;;;20.30;99.90;;;;;;5035379;28;20424;-88
2023/09/11 04:56:29;;;;;;;28.02;19.98;;;20.30;99.90;;;;;;5035289;28;20045;-89
2023/09/11 04:58:54;;;;;;;29.33;19.40;;;20.20;99.90;;;;;;5018864;28;20037;-92
2023/09/11 05:01:20;;;;;;;28.98;21.05;;;20.30;99.90;;;;;;5036107;28;20037;-93
2023/09/11 05:03:45;;;;;;;28.60;19.40;;;20.30;99.90;;;;;;5019169;28;20599;-92
2023/09/11 05:06:11;;;;;;;29.20;19.92;;;20.30;99.90;;;;;;5019177;28;20044;-92
2023/09/11 05:08:37;;;;;;;28.40;19.85;;;20.30;99.90;;;;;;5018365;28;20506;-93
2023/09/11 05:11:02;;;;;;;26.35;19.20;;;20.30;99.90;;;;;;5018762;28;20095;-93
2023/09/11 05:13:28;;;;;;;27.30;18.42;;;20.30;99.90;;;;;;5018618;28;20052;-93
2023/09/11 05:15:53;;;;;;;27.98;19.90;;;20.20;99.90;;;;;;5034787;28;20045;-93
2023/09/11 05:18:19;;;;;;;26.50;19.08;;;20.30;99.90;;;;;;5018141;28;20091;-93
2023/09/11 05:20:46;;;;;;;27.30;18.40;;;20.30;99.90;;;;;;5019008;28;20048;-93
2023/09/11 05:23:11;;;;;;;32.92;19.33;;;20.30;99.90;;;;;;5019066;28;20068;-93
2023/09/11 05:25:37;;;;;;;28.77;18.50;;;20.30;99.90;;;;;;5035505;28;20086;-93
2023/09/11 05:28:03;;;;;;;31.17;20.45;;;20.30;99.90;;;;;;5020480;28;20037;-94
2023/09/11 05:30:28;;;;;;;27.17;19.95;;;20.30;99.90;;;;;;5019278;28;20683;-93
2023/09/11 05:32:54;;;;;;;34.20;20.75;;;20.30;99.90;;;;;;5018179;28;20043;-93
2023/09/11 05:35:20;;;;;;;26.70;20.30;;;20.30;99.90;;;;;;5035324;28;20037;-88
2023/09/11 05:37:46;;;;;;;26.38;19.33;;;20.30;99.90;;;;;;5033187;28;20460;-89
2023/09/11 05:40:11;;;;;;;27.95;18.88;;;20.30;99.90;;;;;;5014685;28;20036;-88
2023/09/11 05:42:37;;;;;;;30.77;19.40;;;20.30;99.90;;;;;;5040523;28;20041;-89
2023/09/11 05:45:04;;;;;;;26.08;19.23;;;20.30;99.90;;;;;;5036263;28;20037;-89
2023/09/11 05:47:29;;;;;;;26.65;19.60;;;20.30;99.90;;;;;;5034402;28;20072;-89
2023/09/11 05:50:00;;;;;;;28.42;19.13;;;20.30;99.90;;;;;;5034536;28;20496;-89
2023/09/11 05:52:29;;;;;;;27.77;18.70;;;20.30;99.90;;;;;;5034538;28;20083;-89
2023/09/11 05:54:54;;;;;;;27.02;18.85;;;20.40;99.90;;;;;;5014602;28;20053;-88
2023/09/11 05:57:20;;;;;;;28.58;21.08;;;20.40;99.90;;;;;;5017507;28;20131;-89
2023/09/11 05:59:46;;;;;;;25.98;20.02;;;20.40;99.90;;;;;;5017660;28;20036;-90
2023/09/11 06:02:12;;;;;;;31.13;19.08;;;20.40;99.90;;;;;;5017738;28;20128;-89
2023/09/11 06:04:37;;;;;;;25.10;18.98;;;20.40;99.90;;;;;;5033854;28;20048;-89
2023/09/11 06:07:03;;;;;;;30.73;19.70;;;20.50;99.90;;;;;;5034402;28;20052;-88
2023/09/11 06:09:29;;;;;;;27.65;18.88;;;20.50;99.90;;;;;;5033935;28;20068;-89
2023/09/11 06:11:55;;;;;;;25.63;18.98;;;20.50;99.90;;;;;;5034114;28;20037;-89
2023/09/11 06:14:21;;;;;;;30.48;19.02;;;20.60;99.90;;;;;;5017844;28;20037;-89
2023/09/11 06:16:46;;;;;;;24.88;18.27;;;20.60;99.90;;;;;;5033719;28;20087;-89
2023/09/11 06:19:12;;;;;;;27.00;19.50;;;20.60;99.90;;;;;;5027929;28;20064;-89
2023/09/11 06:21:38;;;;;;;31.58;19.65;;;20.60;99.90;;;;;;5021701;28;20037;-89
2023/09/11 06:24:06;;;;;;;27.95;19.58;;;20.70;99.90;;;;;;5040266;28;20044;-89
2023/09/11 06:26:32;;;;;;;28.35;19.83;;;20.70;99.90;;;;;;5035863;28;20522;-89
2023/09/11 06:28:57;;;;;;;26.23;18.77;;;20.80;99.90;;;;;;5032965;28;20041;-89
2023/09/11 06:31:23;;;;;;;26.85;18.90;;;20.80;99.90;;;;;;5016641;28;20068;-90
2023/09/11 06:33:49;;;;;;;28.58;18.40;;;20.80;99.90;;;;;;5034873;28;20052;-89
2023/09/11 06:36:14;;;;;;;27.27;18.08;;;20.80;99.90;;;;;;5039350;28;20033;-89
2023/09/11 06:38:40;;;;;;;25.02;18.13;;;20.90;99.90;;;;;;5033021;28;20519;-89
2023/09/11 06:41:06;;;;;;;28.70;19.17;;;21.00;99.90;;;;;;5017292;28;20175;-89
2023/09/11 06:43:32;;;;;;;26.00;19.83;;;21.00;99.90;;;;;;5033732;28;20029;-90
2023/09/11 06:45:57;;;;;;;29.38;18.92;;;21.10;99.90;;;;;;5033805;28;20090;-89
2023/09/11 06:48:23;;;;;;;27.52;18.60;;;21.10;99.90;;;;;;5030188;28;20041;-89
2023/09/11 06:50:51;;;;;;;25.48;18.65;;;21.20;99.90;;;;;;5017482;28;20050;-89
2023/09/11 06:53:17;;;;;;;50.00;20.30;;;21.30;99.90;;;;;;5032824;28;20087;-89
2023/09/11 06:55:44;;;;;;;28.33;19.65;;;21.30;99.90;;;;;;5033873;28;20041;-90
2023/09/11 06:58:10;;;;;;;29.48;20.75;;;21.40;99.90;;;;;;5032938;28;20033;-89
2023/09/11 07:00:36;;;;;;;27.05;20.05;;;21.40;99.90;;;;;;5017261;28;20071;-89
2023/09/11 07:03:01;;;;;;;31.17;20.00;;;21.50;99.90;;;;;;5017234;28;20072;-89
2023/09/11 07:05:28;;;;;;;29.38;19.98;;;21.50;99.90;;;;;;5034126;28;20045;-90
2023/09/11 07:07:54;;;;;;;29.33;20.42;;;21.60;99.90;;;;;;5016483;28;20071;-90
2023/09/11 07:10:19;;;;;;;27.38;21.08;;;21.60;99.90;;;;;;5008939;28;20070;-89
2023/09/11 07:12:46;;;;;;;29.48;20.58;;;21.70;99.90;;;;;;5035076;28;20135;-89
2023/09/11 07:15:12;;;;;;;27.35;21.10;;;21.70;99.90;;;;;;5020823;28;20041;-89
2023/09/11 07:17:38;;;;;;;27.02;20.63;;;21.80;99.90;;;;;;5036707;28;20515;-89
2023/09/11 07:20:09;;;;;;;27.05;20.65;;;21.80;99.90;;;;;;5036968;28;20064;-89
2023/09/11 07:22:34;;;;;;;27.00;21.52;;;21.90;99.90;;;;;;5021350;28;20052;-89
2023/09/11 07:25:00;;;;;;;27.35;21.45;;;22.00;99.90;;;;;;5037487;28;20092;-89
2023/09/11 07:27:33;;;;;;;31.08;21.90;;;22.00;99.90;;;;;;5036334;28;20048;-89
2023/09/11 07:29:59;;;;;;;29.05;20.65;;;22.00;99.90;;;;;;5036865;28;20045;-89
2023/09/11 07:32:25;;;;;;;28.58;21.10;;;22.10;99.90;;;;;;5036512;28;20045;-89
2023/09/11 07:34:51;;;;;;;26.58;20.38;;;22.20;99.90;;;;;;5017197;28;20629;-89
2023/09/11 07:37:17;;;;;;;28.45;21.55;;;22.30;99.90;;;;;;5036931;28;20055;-89
2023/09/11 07:39:42;;;;;;;25.67;19.65;;;22.40;99.90;;;;;;5020496;28;20036;-90
2023/09/11 07:42:08;;;;;;;28.90;20.50;;;22.40;99.90;;;;;;5018080;28;20508;-90
2023/09/11 07:44:33;;;;;;;26.20;19.90;;;22.50;99.90;;;;;;5037135;28;20045;-90
2023/09/11 07:46:59;;;;;;;29.40;21.15;;;22.60;99.90;;;;;;5037306;28;20152;-89
2023/09/11 07:49:24;;;;;;;32.88;19.60;;;22.60;99.90;;;;;;5036580;28;20040;-90
2023/09/11 07:51:50;;;;;;;30.58;20.20;;;22.70;99.90;;;;;;5037219;28;20494;-90
2023/09/11 07:54:16;;;;;;;26.73;20.27;;;22.80;99.90;;;;;;5036656;28;20499;-89
2023/09/11 07:56:41;;;;;;;31.55;20.70;;;22.90;99.90;;;;;;5020405;28;20047;-89
2023/09/11 07:59:07;;;;;;;26.80;20.15;;;23.00;99.90;;;;;;5035969;28;20037;-90
2023/09/11 08:01:32;;;;;;;26.48;19.05;;;23.10;99.90;;;;;;5036431;28;20495;-90
2023/09/11 08:03:58;;;;;;;28.08;19.38;;;23.10;99.90;;;;;;5036555;28;20048;-89
2023/09/11 08:06:24;;;;;;;28.42;20.42;;;23.20;99.90;;;;;;5036228;28;20059;-90
2023/09/11 08:08:53;;;;;;;27.75;19.33;;;23.40;99.90;;;;;;5018604;28;20151;-90
2023/09/11 08:11:19;;;;;;;24.52;18.42;;;23.40;99.90;;;;;;5019246;28;20037;-90
2023/09/11 08:13:46;;;;;;;27.30;19.13;;;23.50;99.90;;;;;;5019461;28;20507;-90
2023/09/11 08:16:13;;;;;;;25.23;18.13;;;23.60;99.90;;;;;;5035910;28;20025;-90
2023/09/11 08:18:38;;;;;;;28.65;19.75;;;23.70;99.90;;;;;;5035105;28;20040;-89
2023/09/11 08:21:04;;;;;;;25.48;18.38;;;23.70;99.90;;;;;;5036372;28;20055;-90
2023/09/11 08:23:30;;;;;;;27.65;18.80;;;23.80;99.90;;;;;;5038275;28;20044;-89
2023/09/11 08:25:57;;;;;;;26.85;17.75;;;23.90;99.90;;;;;;5041378;28;20037;-90
2023/09/11 08:28:23;;;;;;;30.10;17.95;;;24.00;99.90;;;;;;5022900;28;20041;-89
2023/09/11 08:30:50;;;;;;;24.27;17.35;;;24.10;99.90;;;;;;5036505;28;20407;-89
2023/09/11 08:33:16;;;;;;;23.40;16.27;;;24.20;99.90;;;;;;5035744;28;20041;-89
2023/09/11 08:35:42;;;;;;;26.80;16.95;;;24.20;99.90;;;;;;5040501;28;20045;-89
2023/09/11 08:38:08;;;;;;;26.98;16.25;;;24.40;99.90;;;;;;5018475;28;20092;-89
2023/09/11 08:40:34;;;;;;;22.52;14.60;;;24.40;99.90;;;;;;5018451;28;20049;-89
2023/09/11 08:43:01;;;;;;;21.83;14.65;;;24.60;99.90;;;;;;5018842;28;20033;-89
2023/09/11 08:45:26;;;;;;;20.83;13.45;;;24.70;99.90;;;;;;5035706;28;20474;-89
2023/09/11 08:47:57;;;;;;;24.63;13.68;;;24.80;99.90;;;;;;5034940;28;20515;-89
2023/09/11 08:50:27;;;;;;;19.73;12.82;;;24.80;99.90;;;;;;5019067;28;20052;-89
2023/09/11 08:52:55;;;;;;;27.38;13.13;;;24.90;99.90;;;;;;5035934;28;20037;-90
2023/09/11 08:55:23;;;;;;;19.75;12.13;;;25.00;99.90;;;;;;5035375;28;20119;-90
2023/09/11 08:57:49;;;;;;;21.17;12.90;;;25.10;99.90;;;;;;5034613;28;20082;-89
2023/09/11 09:00:15;;;;;;;23.20;13.05;;;25.20;99.90;;;;;;5017790;28;20060;-90
2023/09/11 09:02:42;;;;;;;18.50;11.23;;;25.30;99.90;;;;;;5019186;28;20049;-90
2023/09/11 09:05:08;;;;;;;19.15;10.75;;;25.40;99.90;;;;;;5035286;28;20067;-90
2023/09/11 09:07:34;;;;;;;21.83;10.82;;;25.50;99.90;;;;;;5018320;28;20083;-88
2023/09/11 09:10:02;;;;;;;17.38;10.15;;;25.50;99.90;;;;;;5026396;28;20048;-89
2023/09/11 09:12:28;;;;;;;24.25;11.02;;;25.60;99.90;;;;;;5038640;28;20103;-90
2023/09/11 09:14:54;;;;;;;17.65;10.63;;;25.70;99.90;;;;;;5041278;28;20025;-89
2023/09/11 09:17:20;;;;;;;15.93;9.55;;;25.80;99.90;;;;;;5044099;28;20470;-90
2023/09/11 09:19:45;;;;;;;19.05;10.55;;;25.90;99.90;;;;;;5035893;28;20044;-90
2023/09/11 09:22:12;;;;;;;20.08;10.05;;;25.90;99.90;;;;;;5019456;28;20544;-88
2023/09/11 09:24:53;;;;;;;18.10;9.05;;;26.00;99.90;;;;;;5019637;28;20491;-89
2023/09/11 09:27:20;;;;;;;19.98;10.10;;;26.10;99.90;;;;;;5035948;28;20041;-90
2023/09/11 09:29:47;;;;;;;19.60;10.10;;;26.10;99.90;;;;;;5035561;28;20102;-89
2023/09/11 09:32:14;;;;;;;21.58;10.45;;;26.20;99.90;;;;;;5035348;28;20037;-90
2023/09/11 09:34:48;;;;;;;18.27;10.05;;;26.30;99.90;;;;;;5035004;28;20404;-90
2023/09/11 09:37:18;;;;;;;17.67;9.27;;;26.40;99.90;;;;;;5034274;28;20053;-90
2023/09/11 09:39:48;;;;;;;22.05;10.23;;;26.40;99.90;;;;;;5022632;28;20547;-90
2023/09/11 09:42:14;;;;;;;21.25;10.13;;;26.40;99.90;;;;;;5043627;28;20501;-91
2023/09/11 09:44:42;;;;;;;19.23;10.15;;;26.40;99.90;;;;;;5036986;28;20044;-90
2023/09/11 09:47:18;;;;;;;21.45;9.50;;;26.50;99.90;;;;;;5035294;28;20052;-91
2023/09/11 09:49:57;;;;;;;17.15;11.15;;;26.50;99.90;;;;;;5016745;28;20167;-90
2023/09/11 09:52:28;;;;;;;19.45;9.75;;;26.50;99.90;;;;;;5040280;28;20045;-90
2023/09/11 09:54:58;;;;;;;15.88;9.55;;;26.60;99.90;;;;;;5042610;28;20040;-91
2023/09/11 09:57:26;;;;;;;16.80;10.05;;;26.60;99.90;;;;;;5009745;28;20048;-90
2023/09/11 10:00:01;;;;;;;18.48;10.77;;;26.70;99.90;;;;;;5017735;28;20040;-90
2023/09/11 10:02:32;;;;;;;18.63;10.43;;;26.80;99.90;;;;;;5030786;28;20037;-90
2023/09/11 10:05:02;;;;;;;19.27;11.20;;;26.90;99.90;;;;;;5016568;28;20135;-90
2023/09/11 10:07:38;;;;;;;22.75;12.07;;;26.90;99.90;;;;;;5017392;28;20124;-91
2023/09/11 10:10:30;;;;;;;16.77;11.25;;;27.00;99.90;;;;;;5013410;28;20144;-90
2023/09/11 10:13:00;;;;;;;18.25;10.85;;;27.00;99.90;;;;;;5034255;28;20139;-91
2023/09/11 10:15:26;;;;;;;19.48;11.32;;;27.00;99.90;;;;;;5034203;28;20051;-91
2023/09/11 10:17:56;;;;;;;18.95;12.52;;;27.00;99.90;;;;;;5016422;28;20041;-90
2023/09/11 10:20:23;;;;;;;17.48;11.50;;;27.10;99.90;;;;;;5015879;28;20568;-90
2023/09/11 10:22:57;;;;;;;19.55;12.70;;;27.10;99.90;;;;;;5034236;28;20049;-90
2023/09/11 10:25:24;;;;;;;18.27;12.88;;;27.10;99.90;;;;;;5034086;28;20400;-90
2023/09/11 10:27:54;;;;;;;17.85;12.85;;;27.20;99.90;;;;;;5017170;28;20045;-90
2023/09/11 10:30:24;;;;;;;21.70;14.00;;;27.20;99.90;;;;;;5017538;28;20503;-91
2023/09/11 10:33:10;;;;;;;21.75;13.07;;;27.20;99.90;;;;;;5033934;28;20128;-91
2023/09/11 10:35:40;;;;;;;22.42;12.93;;;27.30;99.90;;;;;;5034180;28;20091;-91
2023/09/11 10:38:07;;;;;;;21.88;12.90;;;27.30;99.90;;;;;;5033305;28;20124;-91
2023/09/11 10:40:34;;;;;;;19.73;12.77;;;27.30;99.90;;;;;;5033614;28;20036;-90
2023/09/11 10:43:00;;;;;;;18.55;12.20;;;27.40;99.90;;;;;;5013681;28;20043;-90
2023/09/11 10:45:30;;;;;;;17.30;11.52;;;27.40;99.90;;;;;;5033829;28;20056;-90
2023/09/11 10:47:55;;;;;;;18.40;12.50;;;27.40;99.90;;;;;;5016056;28;20077;-91
2023/09/11 10:50:29;;;;;;;18.70;12.82;;;27.50;99.90;;;;;;5033602;28;20048;-92
2023/09/11 10:52:56;;;;;;;15.45;12.05;;;27.50;99.90;;;;;;5033532;28;20045;-91
2023/09/11 10:55:25;;;;;;;16.55;11.40;;;27.60;99.90;;;;;;5017304;28;20503;-91
2023/09/11 10:57:57;;;;;;;17.92;10.85;;;27.70;99.90;;;;;;5033416;28;20068;-90
2023/09/11 11:00:23;;;;;;;17.73;10.98;;;27.70;98.90;;;;;;5033516;28;20041;-91
2023/09/11 11:02:50;;;;;;;14.73;10.38;;;27.80;99.90;;;;;;5017172;28;20044;-91
2023/09/11 11:05:16;;;;;;;13.68;9.32;;;27.80;97.70;;;;;;5033304;28;20080;-91
2023/09/11 11:07:42;;;;;;;16.40;9.52;;;27.90;98.10;;;;;;5016541;28;20037;-90
2023/09/11 11:10:12;;;;;;;15.20;9.65;;;27.90;97.40;;;;;;5032717;28;20049;-91
2023/09/11 11:12:40;;;;;;;16.98;10.85;;;28.00;94.90;;;;;;5033452;28;20492;-92
2023/09/11 11:15:25;;;;;;;17.58;10.15;;;28.00;93.40;;;;;;5033383;28;20140;-90
2023/09/11 11:18:22;;;;;;;15.48;10.35;;;28.10;96.20;;;;;;5020575;28;20099;-91
2023/09/11 11:21:01;;;;;;;16.20;11.00;;;28.20;94.60;;;;;;5022651;28;20037;-91
2023/09/11 11:23:30;;;;;;;19.42;11.45;;;28.20;94.90;;;;;;5037704;28;20029;-90
2023/09/11 11:26:06;;;;;;;15.38;11.05;;;28.30;96.30;;;;;;5038658;28;20041;-91
2023/09/11 11:28:45;;;;;;;17.15;11.82;;;28.30;94.60;;;;;;5038719;28;20060;-91
2023/09/11 11:31:19;;;;;;;18.85;11.73;;;28.40;93.40;;;;;;5039054;28;20060;-91
2023/09/11 11:33:46;;;;;;;15.93;10.88;;;28.40;92.30;;;;;;5040309;28;20628;-91
2023/09/11 11:36:14;;;;;;;16.50;10.93;;;28.40;93.00;;;;;;5038922;28;20037;-91
2023/09/11 11:38:42;;;;;;;18.08;11.43;;;28.50;93.10;;;;;;5021966;28;20476;-91
2023/09/11 11:41:08;;;;;;;15.18;11.05;;;28.60;94.30;;;;;;5021079;28;20065;-90
2023/09/11 11:43:34;;;;;;;19.70;11.88;;;28.60;93.30;;;;;;5042292;28;20033;-90
2023/09/11 11:45:59;;;;;;;18.90;12.57;;;28.70;94.40;;;;;;5038779;28;20555;-90
2023/09/11 11:48:28;;;;;;;18.08;11.25;;;28.70;92.00;;;;;;5021986;28;20037;-91
2023/09/11 11:50:55;;;;;;;17.17;11.55;;;28.80;92.20;;;;;;5022800;28;20029;-91
2023/09/11 11:53:22;;;;;;;17.33;12.38;;;28.80;90.20;;;;;;5024920;28;20768;-91
2023/09/11 11:55:50;;;;;;;17.42;12.65;;;28.80;91.20;;;;;;5039981;28;20036;-91
2023/09/11 11:58:16;;;;;;;15.15;11.57;;;28.90;91.70;;;;;;5039423;28;20087;-91
2023/09/11 12:01:03;;;;;;;17.98;12.63;;;28.90;91.30;;;;;;5022413;28;20037;-91
2023/09/11 12:03:45;;;;;;;16.15;11.88;;;29.00;91.40;;;;;;5016701;28;20052;-91
2023/09/11 12:06:11;;;;;;;16.08;12.20;;;29.00;90.80;;;;;;5036515;28;20411;-91
2023/09/11 12:08:37;;;;;;;17.35;11.43;;;29.10;91.40;;;;;;5019809;28;20122;-91
2023/09/11 12:11:05;;;;;;;21.70;12.27;;;29.20;90.30;;;;;;5036405;28;20068;-91
2023/09/11 12:13:32;;;;;;;16.50;12.43;;;29.30;91.60;;;;;;5036383;28;20110;-91
2023/09/11 12:15:59;;;;;;;15.40;10.70;;;29.40;90.50;;;;;;5036398;28;20094;-91
2023/09/11 12:18:27;;;;;;;16.60;10.10;;;29.40;89.60;;;;;;5019436;28;20071;-91
2023/09/11 12:20:56;;;;;;;16.58;10.55;;;29.50;88.40;;;;;;5036038;28;20033;-91
2023/09/11 12:23:21;;;;;;;17.42;11.10;;;29.70;89.00;;;;;;5036100;28;20080;-91
2023/09/11 12:25:48;;;;;;;15.52;8.68;;;29.70;88.90;;;;;;5019670;28;20068;-92
2023/09/11 12:28:15;;;;;;;13.90;7.78;;;29.80;86.20;;;;;;5019166;28;20530;-91